sensor_id;sensor_type;location;lat;lon;timestamp;P1;durP1;ratioP1;P2;durP2;ratioP2
35606;SDS011;21729;58.392;15.656;2023-07-31T00:00:23;3.78;;;1.75;;
35606;SDS011;21729;58.392;15.656;2023-07-31T00:02:51;4.40;;;1.85;;
35606;SDS011;21729;58.392;15.656;2023-07-31T00:05:19;5.20;;;1.80;;
35606;SDS011;21729;58.392;15.656;2023-07-31T00:07:46;3.42;;;1.70;;
35606;SDS011;21729;58.392;15.656;2023-07-31T00:10:13;5.25;;;1.60;;
35606;SDS011;21729;58.392;15.656;2023-07-31T00:12:42;3.07;;;1.83;;
35606;SDS011;21729;58.392;15.656;2023-07-31T00:15:11;3.40;;;1.70;;
35606;SDS011;21729;58.392;15.656;2023-07-31T00:17:39;4.13;;;1.70;;
35606;SDS011;21729;58.392;15.656;2023-07-31T00:20:06;3.00;;;1.63;;
35606;SDS011;21729;58.392;15.656;2023-07-31T00:22:34;5.18;;;1.67;;
35606;SDS011;21729;58.392;15.656;2023-07-31T00:25:02;3.65;;;1.60;;
35606;SDS011;21729;58.392;15.656;2023-07-31T00:27:31;3.50;;;1.70;;
35606;SDS011;21729;58.392;15.656;2023-07-31T00:29:59;4.22;;;1.73;;
35606;SDS011;21729;58.392;15.656;2023-07-31T00:32:27;3.40;;;1.70;;
35606;SDS011;21729;58.392;15.656;2023-07-31T00:34:54;5.22;;;1.80;;
35606;SDS011;21729;58.392;15.656;2023-07-31T00:37:21;3.28;;;1.50;;
35606;SDS011;21729;58.392;15.656;2023-07-31T00:39:48;3.45;;;1.75;;
35606;SDS011;21729;58.392;15.656;2023-07-31T00:42:15;5.93;;;1.88;;
35606;SDS011;21729;58.392;15.656;2023-07-31T00:44:42;3.03;;;1.67;;
35606;SDS011;21729;58.392;15.656;2023-07-31T00:47:10;3.92;;;1.55;;
35606;SDS011;21729;58.392;15.656;2023-07-31T00:49:38;5.47;;;1.80;;
35606;SDS011;21729;58.392;15.656;2023-07-31T00:52:05;2.67;;;1.63;;
35606;SDS011;21729;58.392;15.656;2023-07-31T00:54:33;4.38;;;1.70;;
35606;SDS011;21729;58.392;15.656;2023-07-31T00:57:00;7.82;;;2.00;;
35606;SDS011;21729;58.392;15.656;2023-07-31T00:59:27;4.53;;;1.85;;
35606;SDS011;21729;58.392;15.656;2023-07-31T01:01:54;5.05;;;2.10;;
35606;SDS011;21729;58.392;15.656;2023-07-31T01:04:23;4.60;;;1.98;;
35606;SDS011;21729;58.392;15.656;2023-07-31T01:06:52;4.05;;;2.13;;
35606;SDS011;21729;58.392;15.656;2023-07-31T01:09:29;6.32;;;2.30;;
35606;SDS011;21729;58.392;15.656;2023-07-31T01:12:01;5.82;;;2.22;;
35606;SDS011;21729;58.392;15.656;2023-07-31T01:14:30;3.45;;;2.00;;
35606;SDS011;21729;58.392;15.656;2023-07-31T01:16:57;4.95;;;2.00;;
35606;SDS011;21729;58.392;15.656;2023-07-31T01:19:26;3.70;;;2.00;;
35606;SDS011;21729;58.392;15.656;2023-07-31T01:21:59;2.77;;;2.00;;
35606;SDS011;21729;58.392;15.656;2023-07-31T01:24:41;4.78;;;2.20;;
35606;SDS011;21729;58.392;15.656;2023-07-31T01:27:23;4.70;;;1.80;;
35606;SDS011;21729;58.392;15.656;2023-07-31T01:29:53;4.63;;;1.90;;
35606;SDS011;21729;58.392;15.656;2023-07-31T01:32:27;3.65;;;1.77;;
35606;SDS011;21729;58.392;15.656;2023-07-31T01:34:55;4.75;;;2.20;;
35606;SDS011;21729;58.392;15.656;2023-07-31T01:37:27;4.50;;;2.10;;
35606;SDS011;21729;58.392;15.656;2023-07-31T01:39:55;3.50;;;1.85;;
35606;SDS011;21729;58.392;15.656;2023-07-31T01:42:23;6.88;;;2.25;;
35606;SDS011;21729;58.392;15.656;2023-07-31T01:44:51;3.53;;;2.15;;
35606;SDS011;21729;58.392;15.656;2023-07-31T01:47:18;5.93;;;2.27;;
35606;SDS011;21729;58.392;15.656;2023-07-31T01:49:45;3.45;;;1.98;;
35606;SDS011;21729;58.392;15.656;2023-07-31T01:52:12;3.72;;;1.85;;
35606;SDS011;21729;58.392;15.656;2023-07-31T01:54:39;4.25;;;1.90;;
35606;SDS011;21729;58.392;15.656;2023-07-31T01:57:06;4.93;;;1.98;;
35606;SDS011;21729;58.392;15.656;2023-07-31T01:59:35;3.53;;;2.10;;
35606;SDS011;21729;58.392;15.656;2023-07-31T02:02:02;3.05;;;1.90;;
35606;SDS011;21729;58.392;15.656;2023-07-31T02:04:29;4.45;;;2.10;;
35606;SDS011;21729;58.392;15.656;2023-07-31T02:06:56;5.80;;;2.20;;
35606;SDS011;21729;58.392;15.656;2023-07-31T02:09:23;4.80;;;2.40;;
35606;SDS011;21729;58.392;15.656;2023-07-31T02:11:50;3.88;;;2.03;;
35606;SDS011;21729;58.392;15.656;2023-07-31T02:14:17;4.05;;;2.05;;
35606;SDS011;21729;58.392;15.656;2023-07-31T02:16:46;3.33;;;2.00;;
35606;SDS011;21729;58.392;15.656;2023-07-31T02:19:13;4.53;;;2.20;;
35606;SDS011;21729;58.392;15.656;2023-07-31T02:21:40;5.72;;;2.17;;
35606;SDS011;21729;58.392;15.656;2023-07-31T02:24:07;4.10;;;2.13;;
35606;SDS011;21729;58.392;15.656;2023-07-31T02:26:34;3.58;;;2.08;;
35606;SDS011;21729;58.392;15.656;2023-07-31T02:29:01;4.38;;;2.03;;
35606;SDS011;21729;58.392;15.656;2023-07-31T02:31:28;6.15;;;2.60;;
35606;SDS011;21729;58.392;15.656;2023-07-31T02:33:57;3.90;;;2.05;;
35606;SDS011;21729;58.392;15.656;2023-07-31T02:36:24;4.50;;;2.28;;
35606;SDS011;21729;58.392;15.656;2023-07-31T02:38:51;4.20;;;2.25;;
35606;SDS011;21729;58.392;15.656;2023-07-31T02:41:18;5.10;;;2.40;;
35606;SDS011;21729;58.392;15.656;2023-07-31T02:43:45;4.53;;;2.10;;
35606;SDS011;21729;58.392;15.656;2023-07-31T02:46:12;3.25;;;2.13;;
35606;SDS011;21729;58.392;15.656;2023-07-31T02:48:39;4.00;;;2.20;;
35606;SDS011;21729;58.392;15.656;2023-07-31T02:51:08;3.10;;;2.10;;
35606;SDS011;21729;58.392;15.656;2023-07-31T02:53:35;4.35;;;2.40;;
35606;SDS011;21729;58.392;15.656;2023-07-31T02:56:02;4.32;;;2.28;;
35606;SDS011;21729;58.392;15.656;2023-07-31T02:58:30;3.22;;;2.03;;
35606;SDS011;21729;58.392;15.656;2023-07-31T03:00:57;3.58;;;2.28;;
35606;SDS011;21729;58.392;15.656;2023-07-31T03:03:25;2.83;;;2.47;;
35606;SDS011;21729;58.392;15.656;2023-07-31T03:05:52;4.05;;;2.17;;
35606;SDS011;21729;58.392;15.656;2023-07-31T03:08:21;4.32;;;2.40;;
35606;SDS011;21729;58.392;15.656;2023-07-31T03:10:48;3.70;;;2.30;;
35606;SDS011;21729;58.392;15.656;2023-07-31T03:13:15;4.50;;;2.60;;
35606;SDS011;21729;58.392;15.656;2023-07-31T03:15:42;3.60;;;2.30;;
35606;SDS011;21729;58.392;15.656;2023-07-31T03:18:09;3.97;;;2.30;;
35606;SDS011;21729;58.392;15.656;2023-07-31T03:20:36;3.97;;;2.40;;
35606;SDS011;21729;58.392;15.656;2023-07-31T03:23:03;5.00;;;2.50;;
35606;SDS011;21729;58.392;15.656;2023-07-31T03:25:32;3.70;;;2.45;;
35606;SDS011;21729;58.392;15.656;2023-07-31T03:27:59;4.05;;;2.33;;
35606;SDS011;21729;58.392;15.656;2023-07-31T03:30:26;4.82;;;2.42;;
35606;SDS011;21729;58.392;15.656;2023-07-31T03:32:53;5.15;;;2.40;;
35606;SDS011;21729;58.392;15.656;2023-07-31T03:35:20;5.00;;;2.50;;
35606;SDS011;21729;58.392;15.656;2023-07-31T03:37:47;5.43;;;2.63;;
35606;SDS011;21729;58.392;15.656;2023-07-31T03:40:14;3.08;;;2.30;;
35606;SDS011;21729;58.392;15.656;2023-07-31T03:42:43;3.03;;;2.10;;
35606;SDS011;21729;58.392;15.656;2023-07-31T03:45:10;4.10;;;2.40;;
35606;SDS011;21729;58.392;15.656;2023-07-31T03:47:37;3.17;;;2.60;;
35606;SDS011;21729;58.392;15.656;2023-07-31T03:50:05;3.50;;;2.40;;
35606;SDS011;21729;58.392;15.656;2023-07-31T03:52:32;4.38;;;2.30;;
35606;SDS011;21729;58.392;15.656;2023-07-31T03:55:00;4.13;;;2.47;;
35606;SDS011;21729;58.392;15.656;2023-07-31T03:57:26;2.58;;;2.30;;
35606;SDS011;21729;58.392;15.656;2023-07-31T03:59:55;3.20;;;2.37;;
35606;SDS011;21729;58.392;15.656;2023-07-31T04:02:23;5.30;;;2.00;;
35606;SDS011;21729;58.392;15.656;2023-07-31T04:04:50;2.45;;;2.15;;
35606;SDS011;21729;58.392;15.656;2023-07-31T04:07:17;3.75;;;2.10;;
35606;SDS011;21729;58.392;15.656;2023-07-31T04:09:44;4.00;;;2.30;;
35606;SDS011;21729;58.392;15.656;2023-07-31T04:12:11;4.38;;;2.20;;
35606;SDS011;21729;58.392;15.656;2023-07-31T04:14:38;3.45;;;2.50;;
35606;SDS011;21729;58.392;15.656;2023-07-31T04:17:07;3.70;;;2.20;;
35606;SDS011;21729;58.392;15.656;2023-07-31T04:19:34;3.70;;;2.20;;
35606;SDS011;21729;58.392;15.656;2023-07-31T04:22:01;4.15;;;2.20;;
35606;SDS011;21729;58.392;15.656;2023-07-31T04:24:30;4.28;;;2.22;;
35606;SDS011;21729;58.392;15.656;2023-07-31T04:26:57;4.70;;;2.22;;
35606;SDS011;21729;58.392;15.656;2023-07-31T04:29:24;3.30;;;2.10;;
35606;SDS011;21729;58.392;15.656;2023-07-31T04:31:51;2.78;;;2.10;;
35606;SDS011;21729;58.392;15.656;2023-07-31T04:34:19;3.47;;;2.00;;
35606;SDS011;21729;58.392;15.656;2023-07-31T04:36:46;3.13;;;2.10;;
35606;SDS011;21729;58.392;15.656;2023-07-31T04:39:13;3.58;;;2.00;;
35606;SDS011;21729;58.392;15.656;2023-07-31T04:41:40;2.83;;;2.03;;
35606;SDS011;21729;58.392;15.656;2023-07-31T04:44:08;3.30;;;2.10;;
35606;SDS011;21729;58.392;15.656;2023-07-31T04:46:36;3.40;;;2.22;;
35606;SDS011;21729;58.392;15.656;2023-07-31T04:49:03;2.80;;;1.90;;
35606;SDS011;21729;58.392;15.656;2023-07-31T04:51:32;2.90;;;2.00;;
35606;SDS011;21729;58.392;15.656;2023-07-31T04:53:59;3.40;;;2.00;;
35606;SDS011;21729;58.392;15.656;2023-07-31T04:56:26;4.43;;;2.00;;
35606;SDS011;21729;58.392;15.656;2023-07-31T04:58:53;3.77;;;2.00;;
35606;SDS011;21729;58.392;15.656;2023-07-31T05:01:20;2.22;;;1.98;;
35606;SDS011;21729;58.392;15.656;2023-07-31T05:03:47;2.75;;;1.90;;
35606;SDS011;21729;58.392;15.656;2023-07-31T05:06:14;2.88;;;1.80;;
35606;SDS011;21729;58.392;15.656;2023-07-31T05:08:43;3.65;;;2.00;;
35606;SDS011;21729;58.392;15.656;2023-07-31T05:11:10;2.42;;;1.90;;
35606;SDS011;21729;58.392;15.656;2023-07-31T05:13:37;2.67;;;1.90;;
35606;SDS011;21729;58.392;15.656;2023-07-31T05:16:04;2.17;;;1.90;;
35606;SDS011;21729;58.392;15.656;2023-07-31T05:18:31;3.55;;;1.80;;
35606;SDS011;21729;58.392;15.656;2023-07-31T05:20:58;2.47;;;1.93;;
35606;SDS011;21729;58.392;15.656;2023-07-31T05:23:25;2.60;;;1.95;;
35606;SDS011;21729;58.392;15.656;2023-07-31T05:25:54;2.35;;;1.65;;
35606;SDS011;21729;58.392;15.656;2023-07-31T05:28:21;3.53;;;2.20;;
35606;SDS011;21729;58.392;15.656;2023-07-31T05:30:48;3.83;;;1.80;;
35606;SDS011;21729;58.392;15.656;2023-07-31T05:33:15;2.30;;;1.70;;
35606;SDS011;21729;58.392;15.656;2023-07-31T05:35:42;4.13;;;1.80;;
35606;SDS011;21729;58.392;15.656;2023-07-31T05:38:10;2.30;;;1.50;;
35606;SDS011;21729;58.392;15.656;2023-07-31T05:40:37;3.47;;;1.60;;
35606;SDS011;21729;58.392;15.656;2023-07-31T05:43:06;2.57;;;1.70;;
35606;SDS011;21729;58.392;15.656;2023-07-31T05:45:33;2.60;;;1.60;;
35606;SDS011;21729;58.392;15.656;2023-07-31T05:48:00;3.25;;;1.90;;
35606;SDS011;21729;58.392;15.656;2023-07-31T05:50:27;3.20;;;1.80;;
35606;SDS011;21729;58.392;15.656;2023-07-31T05:52:54;2.53;;;1.50;;
35606;SDS011;21729;58.392;15.656;2023-07-31T05:55:21;2.37;;;1.70;;
35606;SDS011;21729;58.392;15.656;2023-07-31T05:57:48;4.13;;;1.77;;
35606;SDS011;21729;58.392;15.656;2023-07-31T06:00:17;4.47;;;1.70;;
35606;SDS011;21729;58.392;15.656;2023-07-31T06:02:44;2.53;;;1.60;;
35606;SDS011;21729;58.392;15.656;2023-07-31T06:05:12;3.75;;;1.40;;
35606;SDS011;21729;58.392;15.656;2023-07-31T06:07:42;3.30;;;1.30;;
35606;SDS011;21729;58.392;15.656;2023-07-31T06:10:09;1.67;;;1.30;;
35606;SDS011;21729;58.392;15.656;2023-07-31T06:12:36;1.98;;;1.30;;
35606;SDS011;21729;58.392;15.656;2023-07-31T06:15:04;1.80;;;1.30;;
35606;SDS011;21729;58.392;15.656;2023-07-31T06:17:33;2.92;;;1.40;;
35606;SDS011;21729;58.392;15.656;2023-07-31T06:20:00;4.35;;;1.70;;
35606;SDS011;21729;58.392;15.656;2023-07-31T06:22:30;3.15;;;1.80;;
35606;SDS011;21729;58.392;15.656;2023-07-31T06:24:57;4.10;;;1.60;;
35606;SDS011;21729;58.392;15.656;2023-07-31T06:27:24;2.45;;;1.40;;
35606;SDS011;21729;58.392;15.656;2023-07-31T06:29:51;2.35;;;1.30;;
35606;SDS011;21729;58.392;15.656;2023-07-31T06:32:19;2.08;;;1.33;;
35606;SDS011;21729;58.392;15.656;2023-07-31T06:34:47;2.20;;;1.50;;
35606;SDS011;21729;58.392;15.656;2023-07-31T06:37:14;2.42;;;1.40;;
35606;SDS011;21729;58.392;15.656;2023-07-31T06:39:42;2.87;;;1.50;;
35606;SDS011;21729;58.392;15.656;2023-07-31T06:42:09;2.40;;;1.42;;
35606;SDS011;21729;58.392;15.656;2023-07-31T06:44:36;2.85;;;1.35;;
35606;SDS011;21729;58.392;15.656;2023-07-31T06:47:04;2.58;;;1.40;;
35606;SDS011;21729;58.392;15.656;2023-07-31T06:49:33;4.10;;;1.70;;
35606;SDS011;21729;58.392;15.656;2023-07-31T06:52:02;3.28;;;1.83;;
35606;SDS011;21729;58.392;15.656;2023-07-31T06:54:30;2.97;;;1.70;;
35606;SDS011;21729;58.392;15.656;2023-07-31T06:56:57;4.10;;;1.70;;
35606;SDS011;21729;58.392;15.656;2023-07-31T06:59:24;3.55;;;1.60;;
35606;SDS011;21729;58.392;15.656;2023-07-31T07:01:51;3.42;;;1.60;;
35606;SDS011;21729;58.392;15.656;2023-07-31T07:04:18;3.40;;;1.80;;
35606;SDS011;21729;58.392;15.656;2023-07-31T07:06:45;3.20;;;1.60;;
35606;SDS011;21729;58.392;15.656;2023-07-31T07:09:14;3.50;;;1.40;;
35606;SDS011;21729;58.392;15.656;2023-07-31T07:11:41;2.20;;;1.52;;
35606;SDS011;21729;58.392;15.656;2023-07-31T07:14:08;2.85;;;1.55;;
35606;SDS011;21729;58.392;15.656;2023-07-31T07:16:35;3.85;;;1.55;;
35606;SDS011;21729;58.392;15.656;2023-07-31T07:19:02;2.08;;;1.27;;
35606;SDS011;21729;58.392;15.656;2023-07-31T07:21:30;2.55;;;1.40;;
35606;SDS011;21729;58.392;15.656;2023-07-31T07:23:57;3.58;;;1.40;;
35606;SDS011;21729;58.392;15.656;2023-07-31T07:26:25;2.30;;;1.30;;
35606;SDS011;21729;58.392;15.656;2023-07-31T07:28:52;2.80;;;1.40;;
35606;SDS011;21729;58.392;15.656;2023-07-31T07:31:20;2.10;;;1.40;;
35606;SDS011;21729;58.392;15.656;2023-07-31T07:33:47;2.23;;;1.40;;
35606;SDS011;21729;58.392;15.656;2023-07-31T07:36:14;3.22;;;1.30;;
35606;SDS011;21729;58.392;15.656;2023-07-31T07:38:41;1.92;;;1.17;;
35606;SDS011;21729;58.392;15.656;2023-07-31T07:41:08;1.45;;;1.10;;
35606;SDS011;21729;58.392;15.656;2023-07-31T07:43:37;1.65;;;1.10;;
35606;SDS011;21729;58.392;15.656;2023-07-31T07:46:04;2.47;;;1.20;;
35606;SDS011;21729;58.392;15.656;2023-07-31T07:48:31;2.60;;;1.17;;
35606;SDS011;21729;58.392;15.656;2023-07-31T07:50:58;2.47;;;0.90;;
35606;SDS011;21729;58.392;15.656;2023-07-31T07:53:25;1.63;;;0.90;;
35606;SDS011;21729;58.392;15.656;2023-07-31T07:55:52;1.73;;;1.10;;
35606;SDS011;21729;58.392;15.656;2023-07-31T07:58:19;2.13;;;1.10;;
35606;SDS011;21729;58.392;15.656;2023-07-31T08:00:51;1.85;;;1.10;;
35606;SDS011;21729;58.392;15.656;2023-07-31T08:03:19;2.30;;;1.17;;
35606;SDS011;21729;58.392;15.656;2023-07-31T08:05:46;2.08;;;1.10;;
35606;SDS011;21729;58.392;15.656;2023-07-31T08:08:14;2.70;;;1.23;;
35606;SDS011;21729;58.392;15.656;2023-07-31T08:10:42;3.08;;;1.35;;
35606;SDS011;21729;58.392;15.656;2023-07-31T08:13:09;1.75;;;1.30;;
35606;SDS011;21729;58.392;15.656;2023-07-31T08:15:37;3.15;;;1.50;;
35606;SDS011;21729;58.392;15.656;2023-07-31T08:18:05;3.57;;;1.63;;
35606;SDS011;21729;58.392;15.656;2023-07-31T08:20:32;2.47;;;1.55;;
35606;SDS011;21729;58.392;15.656;2023-07-31T08:22:59;2.15;;;1.35;;
35606;SDS011;21729;58.392;15.656;2023-07-31T08:25:26;2.78;;;1.20;;
35606;SDS011;21729;58.392;15.656;2023-07-31T08:27:53;2.00;;;1.30;;
35606;SDS011;21729;58.392;15.656;2023-07-31T08:30:21;1.63;;;1.10;;
35606;SDS011;21729;58.392;15.656;2023-07-31T08:32:48;1.57;;;1.10;;
35606;SDS011;21729;58.392;15.656;2023-07-31T08:35:17;1.95;;;1.13;;
35606;SDS011;21729;58.392;15.656;2023-07-31T08:37:44;1.38;;;1.10;;
35606;SDS011;21729;58.392;15.656;2023-07-31T08:40:11;1.73;;;0.90;;
35606;SDS011;21729;58.392;15.656;2023-07-31T08:42:48;2.25;;;1.10;;
35606;SDS011;21729;58.392;15.656;2023-07-31T08:45:17;1.75;;;1.13;;
35606;SDS011;21729;58.392;15.656;2023-07-31T08:47:46;3.17;;;1.20;;
35606;SDS011;21729;58.392;15.656;2023-07-31T08:50:14;1.90;;;1.30;;
35606;SDS011;21729;58.392;15.656;2023-07-31T08:52:44;2.20;;;1.20;;
35606;SDS011;21729;58.392;15.656;2023-07-31T08:55:12;2.30;;;1.13;;
35606;SDS011;21729;58.392;15.656;2023-07-31T08:57:39;3.00;;;1.20;;
35606;SDS011;21729;58.392;15.656;2023-07-31T09:00:08;2.87;;;1.20;;
35606;SDS011;21729;58.392;15.656;2023-07-31T09:02:38;2.20;;;1.00;;
35606;SDS011;21729;58.392;15.656;2023-07-31T09:05:10;2.05;;;0.95;;
35606;SDS011;21729;58.392;15.656;2023-07-31T09:07:38;2.45;;;1.20;;
35606;SDS011;21729;58.392;15.656;2023-07-31T09:10:07;3.25;;;1.23;;
35606;SDS011;21729;58.392;15.656;2023-07-31T09:12:35;1.88;;;1.23;;
35606;SDS011;21729;58.392;15.656;2023-07-31T09:15:03;2.30;;;1.30;;
35606;SDS011;21729;58.392;15.656;2023-07-31T09:17:31;2.15;;;1.20;;
35606;SDS011;21729;58.392;15.656;2023-07-31T09:20:05;1.77;;;1.10;;
35606;SDS011;21729;58.392;15.656;2023-07-31T09:22:40;1.88;;;1.00;;
35606;SDS011;21729;58.392;15.656;2023-07-31T09:25:18;1.95;;;1.17;;
35606;SDS011;21729;58.392;15.656;2023-07-31T09:27:47;2.08;;;1.00;;
35606;SDS011;21729;58.392;15.656;2023-07-31T09:30:16;2.28;;;1.20;;
35606;SDS011;21729;58.392;15.656;2023-07-31T09:32:44;3.00;;;1.20;;
35606;SDS011;21729;58.392;15.656;2023-07-31T09:35:18;1.27;;;1.00;;
35606;SDS011;21729;58.392;15.656;2023-07-31T09:37:50;1.52;;;1.20;;
35606;SDS011;21729;58.392;15.656;2023-07-31T09:40:29;2.53;;;1.30;;
35606;SDS011;21729;58.392;15.656;2023-07-31T09:42:57;2.70;;;1.10;;
35606;SDS011;21729;58.392;15.656;2023-07-31T09:45:25;2.27;;;1.30;;
35606;SDS011;21729;58.392;15.656;2023-07-31T09:47:53;2.30;;;1.23;;
35606;SDS011;21729;58.392;15.656;2023-07-31T09:50:20;2.35;;;1.10;;
35606;SDS011;21729;58.392;15.656;2023-07-31T09:52:49;1.60;;;1.13;;
35606;SDS011;21729;58.392;15.656;2023-07-31T09:55:17;2.38;;;1.25;;
35606;SDS011;21729;58.392;15.656;2023-07-31T09:57:46;1.58;;;1.00;;
35606;SDS011;21729;58.392;15.656;2023-07-31T10:00:16;1.90;;;1.00;;
35606;SDS011;21729;58.392;15.656;2023-07-31T10:02:47;1.30;;;1.00;;
35606;SDS011;21729;58.392;15.656;2023-07-31T10:05:15;2.33;;;1.10;;
35606;SDS011;21729;58.392;15.656;2023-07-31T10:07:43;1.20;;;1.00;;
35606;SDS011;21729;58.392;15.656;2023-07-31T10:10:15;1.92;;;1.30;;
35606;SDS011;21729;58.392;15.656;2023-07-31T10:12:43;2.10;;;1.10;;
35606;SDS011;21729;58.392;15.656;2023-07-31T10:15:12;1.70;;;1.17;;
35606;SDS011;21729;58.392;15.656;2023-07-31T10:17:41;2.70;;;1.17;;
35606;SDS011;21729;58.392;15.656;2023-07-31T10:20:09;1.63;;;1.30;;
35606;SDS011;21729;58.392;15.656;2023-07-31T10:22:37;2.33;;;1.23;;
35606;SDS011;21729;58.392;15.656;2023-07-31T10:25:05;2.50;;;1.10;;
35606;SDS011;21729;58.392;15.656;2023-07-31T10:27:34;2.17;;;1.00;;
35606;SDS011;21729;58.392;15.656;2023-07-31T10:30:04;3.33;;;1.20;;
35606;SDS011;21729;58.392;15.656;2023-07-31T10:32:34;1.98;;;1.10;;
35606;SDS011;21729;58.392;15.656;2023-07-31T10:35:04;1.50;;;0.90;;
35606;SDS011;21729;58.392;15.656;2023-07-31T10:37:36;2.08;;;0.93;;
35606;SDS011;21729;58.392;15.656;2023-07-31T10:40:04;1.92;;;1.20;;
35606;SDS011;21729;58.392;15.656;2023-07-31T10:42:33;1.23;;;0.80;;
35606;SDS011;21729;58.392;15.656;2023-07-31T10:45:03;1.50;;;1.10;;
35606;SDS011;21729;58.392;15.656;2023-07-31T10:47:36;2.25;;;1.00;;
35606;SDS011;21729;58.392;15.656;2023-07-31T10:50:14;2.33;;;1.13;;
35606;SDS011;21729;58.392;15.656;2023-07-31T10:52:47;2.67;;;1.23;;
35606;SDS011;21729;58.392;15.656;2023-07-31T10:55:25;1.90;;;1.27;;
35606;SDS011;21729;58.392;15.656;2023-07-31T10:57:53;2.03;;;1.10;;
35606;SDS011;21729;58.392;15.656;2023-07-31T11:00:24;2.15;;;1.30;;
35606;SDS011;21729;58.392;15.656;2023-07-31T11:02:56;1.85;;;1.05;;
35606;SDS011;21729;58.392;15.656;2023-07-31T11:05:40;1.73;;;1.27;;
35606;SDS011;21729;58.392;15.656;2023-07-31T11:08:19;1.35;;;1.10;;
35606;SDS011;21729;58.392;15.656;2023-07-31T11:10:49;3.17;;;1.27;;
35606;SDS011;21729;58.392;15.656;2023-07-31T11:13:17;1.77;;;1.13;;
35606;SDS011;21729;58.392;15.656;2023-07-31T11:15:46;1.58;;;1.05;;
35606;SDS011;21729;58.392;15.656;2023-07-31T11:18:13;1.93;;;1.10;;
35606;SDS011;21729;58.392;15.656;2023-07-31T11:20:42;1.90;;;1.10;;
35606;SDS011;21729;58.392;15.656;2023-07-31T11:23:09;1.83;;;1.20;;
35606;SDS011;21729;58.392;15.656;2023-07-31T11:25:37;1.70;;;1.10;;
35606;SDS011;21729;58.392;15.656;2023-07-31T11:28:07;1.73;;;1.00;;
35606;SDS011;21729;58.392;15.656;2023-07-31T11:30:36;1.77;;;1.02;;
35606;SDS011;21729;58.392;15.656;2023-07-31T11:33:05;1.90;;;1.20;;
35606;SDS011;21729;58.392;15.656;2023-07-31T11:35:32;1.93;;;1.10;;
35606;SDS011;21729;58.392;15.656;2023-07-31T11:38:01;1.63;;;1.17;;
35606;SDS011;21729;58.392;15.656;2023-07-31T11:40:29;2.05;;;1.00;;
35606;SDS011;21729;58.392;15.656;2023-07-31T11:42:56;1.63;;;1.00;;
35606;SDS011;21729;58.392;15.656;2023-07-31T11:45:25;2.40;;;1.00;;
35606;SDS011;21729;58.392;15.656;2023-07-31T11:47:54;1.88;;;1.00;;
35606;SDS011;21729;58.392;15.656;2023-07-31T11:50:23;0.80;;;0.80;;
35606;SDS011;21729;58.392;15.656;2023-07-31T11:52:53;1.23;;;0.82;;
35606;SDS011;21729;58.392;15.656;2023-07-31T11:55:24;1.80;;;0.98;;
35606;SDS011;21729;58.392;15.656;2023-07-31T11:57:52;1.20;;;0.82;;
35606;SDS011;21729;58.392;15.656;2023-07-31T12:00:22;0.97;;;0.80;;
35606;SDS011;21729;58.392;15.656;2023-07-31T12:02:50;1.20;;;0.85;;
35606;SDS011;21729;58.392;15.656;2023-07-31T12:05:18;1.05;;;0.95;;
35606;SDS011;21729;58.392;15.656;2023-07-31T12:07:47;1.55;;;0.93;;
35606;SDS011;21729;58.392;15.656;2023-07-31T12:10:22;1.35;;;0.90;;
35606;SDS011;21729;58.392;15.656;2023-07-31T12:13:00;0.80;;;0.80;;
35606;SDS011;21729;58.392;15.656;2023-07-31T12:15:31;1.25;;;0.90;;
35606;SDS011;21729;58.392;15.656;2023-07-31T12:18:04;1.83;;;0.85;;
35606;SDS011;21729;58.392;15.656;2023-07-31T12:20:32;1.65;;;1.00;;
35606;SDS011;21729;58.392;15.656;2023-07-31T12:23:01;1.13;;;1.00;;
35606;SDS011;21729;58.392;15.656;2023-07-31T12:25:32;1.10;;;0.90;;
35606;SDS011;21729;58.392;15.656;2023-07-31T12:28:04;3.47;;;1.10;;
35606;SDS011;21729;58.392;15.656;2023-07-31T12:30:36;1.63;;;1.05;;
35606;SDS011;21729;58.392;15.656;2023-07-31T12:33:04;2.20;;;1.02;;
35606;SDS011;21729;58.392;15.656;2023-07-31T12:35:36;1.80;;;0.97;;
35606;SDS011;21729;58.392;15.656;2023-07-31T12:38:06;1.42;;;0.90;;
35606;SDS011;21729;58.392;15.656;2023-07-31T12:40:33;1.40;;;0.90;;
35606;SDS011;21729;58.392;15.656;2023-07-31T12:43:02;1.15;;;0.90;;
35606;SDS011;21729;58.392;15.656;2023-07-31T12:45:29;1.60;;;1.00;;
35606;SDS011;21729;58.392;15.656;2023-07-31T12:47:57;1.93;;;0.93;;
35606;SDS011;21729;58.392;15.656;2023-07-31T12:50:24;2.22;;;0.95;;
35606;SDS011;21729;58.392;15.656;2023-07-31T12:52:52;1.60;;;0.88;;
35606;SDS011;21729;58.392;15.656;2023-07-31T12:55:21;2.08;;;0.98;;
35606;SDS011;21729;58.392;15.656;2023-07-31T12:57:48;1.15;;;0.85;;
35606;SDS011;21729;58.392;15.656;2023-07-31T13:00:16;1.40;;;0.90;;
35606;SDS011;21729;58.392;15.656;2023-07-31T13:02:43;1.85;;;0.88;;
35606;SDS011;21729;58.392;15.656;2023-07-31T13:05:10;1.42;;;0.90;;
35606;SDS011;21729;58.392;15.656;2023-07-31T13:07:38;1.33;;;0.90;;
35606;SDS011;21729;58.392;15.656;2023-07-31T13:10:06;1.90;;;0.90;;
35606;SDS011;21729;58.392;15.656;2023-07-31T13:12:35;1.60;;;0.90;;
35606;SDS011;21729;58.392;15.656;2023-07-31T13:15:02;1.60;;;1.00;;
35606;SDS011;21729;58.392;15.656;2023-07-31T13:17:30;1.77;;;1.00;;
35606;SDS011;21729;58.392;15.656;2023-07-31T13:19:57;1.50;;;0.90;;
35606;SDS011;21729;58.392;15.656;2023-07-31T13:22:25;1.52;;;0.95;;
35606;SDS011;21729;58.392;15.656;2023-07-31T13:24:52;1.90;;;0.90;;
35606;SDS011;21729;58.392;15.656;2023-07-31T13:27:19;1.58;;;0.90;;
35606;SDS011;21729;58.392;15.656;2023-07-31T13:29:48;1.10;;;0.90;;
35606;SDS011;21729;58.392;15.656;2023-07-31T13:32:15;1.88;;;0.95;;
35606;SDS011;21729;58.392;15.656;2023-07-31T13:34:43;1.52;;;0.80;;
35606;SDS011;21729;58.392;15.656;2023-07-31T13:37:10;1.20;;;0.90;;
35606;SDS011;21729;58.392;15.656;2023-07-31T13:39:38;1.20;;;0.80;;
35606;SDS011;21729;58.392;15.656;2023-07-31T13:42:06;1.75;;;1.00;;
35606;SDS011;21729;58.392;15.656;2023-07-31T13:44:36;1.17;;;0.98;;
35606;SDS011;21729;58.392;15.656;2023-07-31T13:47:05;1.63;;;0.85;;
35606;SDS011;21729;58.392;15.656;2023-07-31T13:49:33;2.07;;;0.90;;
35606;SDS011;21729;58.392;15.656;2023-07-31T13:52:00;2.58;;;0.98;;
35606;SDS011;21729;58.392;15.656;2023-07-31T13:54:28;1.92;;;0.90;;
35606;SDS011;21729;58.392;15.656;2023-07-31T13:56:55;2.33;;;0.90;;
35606;SDS011;21729;58.392;15.656;2023-07-31T13:59:24;1.58;;;0.80;;
35606;SDS011;21729;58.392;15.656;2023-07-31T14:01:51;2.40;;;1.10;;
35606;SDS011;21729;58.392;15.656;2023-07-31T14:04:21;1.58;;;0.93;;
35606;SDS011;21729;58.392;15.656;2023-07-31T14:06:48;1.98;;;1.00;;
35606;SDS011;21729;58.392;15.656;2023-07-31T14:09:15;1.27;;;0.80;;
35606;SDS011;21729;58.392;15.656;2023-07-31T14:11:43;1.47;;;0.90;;
35606;SDS011;21729;58.392;15.656;2023-07-31T14:14:10;2.03;;;0.80;;
35606;SDS011;21729;58.392;15.656;2023-07-31T14:16:38;1.77;;;1.00;;
35606;SDS011;21729;58.392;15.656;2023-07-31T14:19:06;1.33;;;0.90;;
35606;SDS011;21729;58.392;15.656;2023-07-31T14:21:35;1.10;;;0.90;;
35606;SDS011;21729;58.392;15.656;2023-07-31T14:24:02;0.90;;;0.70;;
35606;SDS011;21729;58.392;15.656;2023-07-31T14:26:30;1.40;;;0.73;;
35606;SDS011;21729;58.392;15.656;2023-07-31T14:28:57;1.10;;;0.70;;
35606;SDS011;21729;58.392;15.656;2023-07-31T14:31:24;1.55;;;0.80;;
35606;SDS011;21729;58.392;15.656;2023-07-31T14:33:51;0.77;;;0.60;;
35606;SDS011;21729;58.392;15.656;2023-07-31T14:36:18;1.25;;;0.70;;
35606;SDS011;21729;58.392;15.656;2023-07-31T14:38:46;1.13;;;0.50;;